createdAt,value
2023-04-18T00:00:23.616Z,31.14
2023-04-18T00:01:23.640Z,31.15
2023-04-18T00:02:23.864Z,31.12
2023-04-18T00:03:23.994Z,31.07
2023-04-18T00:04:23.926Z,31.08
2023-04-18T00:05:23.831Z,31.11
2023-04-18T00:06:23.865Z,31.07
2023-04-18T00:07:23.954Z,31.07
2023-04-18T00:08:23.990Z,31.02
2023-04-18T00:09:24.018Z,31.02
2023-04-18T00:10:24.077Z,31.01
2023-04-18T00:11:24.122Z,31.05
2023-04-18T00:12:24.173Z,31.05
2023-04-18T00:13:24.192Z,30.98
2023-04-18T00:14:24.273Z,31.03
2023-04-18T00:15:24.315Z,31.05
2023-04-18T00:16:24.386Z,31.10
2023-04-18T00:17:24.454Z,31.09
2023-04-18T00:18:24.477Z,31.08
2023-04-18T00:19:24.528Z,31.06
2023-04-18T00:20:24.586Z,31.12
2023-04-18T00:21:24.642Z,31.07
2023-04-18T00:22:24.672Z,31.12
2023-04-18T00:23:24.739Z,31.12
2023-04-18T00:24:24.808Z,31.13
2023-04-18T00:25:24.846Z,31.14
2023-04-18T00:26:24.887Z,31.17
2023-04-18T00:27:24.956Z,31.13
2023-04-18T00:28:24.984Z,31.12
2023-04-18T00:29:25.049Z,31.14
2023-04-18T00:30:25.099Z,31.12
2023-04-18T00:31:25.238Z,31.16
2023-04-18T00:32:25.241Z,31.20
2023-04-18T00:33:25.263Z,31.14
2023-04-18T00:34:25.314Z,31.18
2023-04-18T00:35:25.360Z,31.14
2023-04-18T00:36:25.420Z,31.21
2023-04-18T00:37:25.466Z,31.17
2023-04-18T00:38:25.551Z,31.16
2023-04-18T00:39:25.591Z,31.21
2023-04-18T00:40:25.683Z,31.20
2023-04-18T00:41:25.707Z,31.22
2023-04-18T00:42:25.774Z,31.20
2023-04-18T00:43:25.837Z,31.25
2023-04-18T00:44:25.916Z,31.23
2023-04-18T00:45:25.967Z,31.21
2023-04-18T00:46:26.070Z,31.24
2023-04-18T00:47:26.132Z,31.24
2023-04-18T00:48:26.134Z,31.26
2023-04-18T00:49:26.222Z,31.26
2023-04-18T00:50:26.279Z,31.26
2023-04-18T00:51:26.324Z,31.27
2023-04-18T00:52:26.380Z,31.29
2023-04-18T00:53:26.453Z,31.27
2023-04-18T00:54:26.554Z,31.26
2023-04-18T00:55:26.634Z,31.31
2023-04-18T00:56:26.661Z,31.27
2023-04-18T00:57:26.687Z,31.31
2023-04-18T00:58:26.839Z,31.28
2023-04-18T00:59:26.812Z,31.31
2023-04-18T01:00:26.937Z,31.29
2023-04-18T01:01:26.994Z,31.34
2023-04-18T01:02:27.125Z,31.27
2023-04-18T01:03:27.201Z,31.29
2023-04-18T01:04:27.243Z,31.28
2023-04-18T01:05:27.223Z,31.32
2023-04-18T01:06:27.272Z,31.27
2023-04-18T01:07:27.321Z,31.27
2023-04-18T01:08:27.384Z,31.27
2023-04-18T01:09:27.458Z,31.29
2023-04-18T01:10:27.501Z,31.28
2023-04-18T01:11:27.569Z,31.28
2023-04-18T01:12:27.639Z,31.27
2023-04-18T01:13:27.670Z,31.28
2023-04-18T01:14:27.745Z,31.24
2023-04-18T01:15:27.773Z,31.20
2023-04-18T01:16:27.895Z,31.25
2023-04-18T01:17:27.915Z,31.23
2023-04-18T01:18:27.995Z,31.21
2023-04-18T01:19:28.045Z,31.21
2023-04-18T01:20:28.119Z,31.18
2023-04-18T01:21:28.149Z,31.22
2023-04-18T01:22:28.245Z,31.21
2023-04-18T01:23:28.311Z,31.24
2023-04-18T01:24:28.363Z,31.20
2023-04-18T01:25:28.415Z,31.22
2023-04-18T01:26:28.468Z,31.20
2023-04-18T01:27:28.488Z,31.27
2023-04-18T01:28:28.587Z,31.13
2023-04-18T01:29:28.661Z,31.14
2023-04-18T01:30:28.701Z,31.12
2023-04-18T01:31:28.751Z,31.08
2023-04-18T01:32:28.793Z,31.14
2023-04-18T01:33:28.825Z,31.12
2023-04-18T01:34:28.914Z,31.10
2023-04-18T01:35:28.918Z,31.10
2023-04-18T01:36:28.988Z,31.08
2023-04-18T01:37:29.039Z,31.08
2023-04-18T01:38:29.078Z,30.99
2023-04-18T01:39:29.178Z,31.01
2023-04-18T01:40:29.257Z,31.01
2023-04-18T01:41:29.257Z,31.03
2023-04-18T01:42:29.312Z,31.01
2023-04-18T01:43:29.385Z,30.97
2023-04-18T01:44:29.470Z,30.97
2023-04-18T01:45:29.528Z,30.93
2023-04-18T01:46:29.622Z,30.95
2023-04-18T01:47:29.644Z,30.95
2023-04-18T01:48:29.713Z,30.95
2023-04-18T01:49:29.801Z,30.93
2023-04-18T01:50:29.806Z,30.89
2023-04-18T01:51:29.941Z,30.89
2023-04-18T01:52:29.964Z,30.88
2023-04-18T01:53:30.020Z,30.85
2023-04-18T01:54:30.109Z,30.82
2023-04-18T01:55:30.139Z,30.80
2023-04-18T01:56:30.164Z,30.80
2023-04-18T01:57:30.256Z,30.78
2023-04-18T01:58:30.288Z,30.79
2023-04-18T01:59:30.360Z,30.78
2023-04-18T02:00:30.456Z,30.82
2023-04-18T02:01:30.468Z,30.75
2023-04-18T02:02:30.622Z,30.82
2023-04-18T02:03:30.757Z,30.76
2023-04-18T02:04:30.614Z,30.77
2023-04-18T02:05:30.656Z,30.72
2023-04-18T02:06:30.720Z,30.77
2023-04-18T02:07:30.740Z,30.74
2023-04-18T02:08:30.785Z,30.69
2023-04-18T02:09:30.831Z,30.76
2023-04-18T02:10:30.866Z,30.72
2023-04-18T02:11:30.909Z,30.73
2023-04-18T02:12:30.972Z,30.70
2023-04-18T02:13:31.006Z,30.66
2023-04-18T02:14:31.078Z,30.67
2023-04-18T02:15:31.110Z,30.66
2023-04-18T02:16:31.190Z,30.63
2023-04-18T02:17:31.178Z,30.62
2023-04-18T02:18:31.204Z,30.62
2023-04-18T02:19:31.180Z,30.56
2023-04-18T02:20:31.200Z,30.56
2023-04-18T02:21:31.244Z,30.57
2023-04-18T02:22:31.331Z,30.53
2023-04-18T02:23:31.435Z,30.53
2023-04-18T02:24:31.389Z,30.52
2023-04-18T02:25:31.434Z,30.46
2023-04-18T02:26:31.452Z,30.42
2023-04-18T02:27:31.476Z,30.41
2023-04-18T02:28:31.508Z,30.41
2023-04-18T02:29:31.523Z,30.47
2023-04-18T02:30:31.538Z,30.42
2023-04-18T02:31:31.635Z,30.38
2023-04-18T02:32:31.669Z,30.34
2023-04-18T02:33:31.642Z,30.35
2023-04-18T02:34:31.714Z,30.31
2023-04-18T02:35:31.737Z,30.35
2023-04-18T02:36:31.710Z,30.35
2023-04-18T02:37:31.719Z,30.32
2023-04-18T02:38:31.759Z,30.32
2023-04-18T02:39:31.795Z,30.34
2023-04-18T02:40:31.743Z,30.34
2023-04-18T02:41:31.794Z,30.28
2023-04-18T02:42:31.798Z,30.32
2023-04-18T02:43:31.832Z,30.26
2023-04-18T02:44:31.821Z,30.26
2023-04-18T02:45:31.862Z,30.21
2023-04-18T02:46:31.858Z,30.19
2023-04-18T02:47:40.518Z,30.24
2023-04-18T02:48:32.875Z,30.22
2023-04-18T02:49:31.863Z,30.26
2023-04-18T02:50:31.857Z,30.19
2023-04-18T02:51:31.828Z,30.24
2023-04-18T02:52:31.811Z,30.25
2023-04-18T02:53:31.797Z,30.25
2023-04-18T02:54:31.808Z,30.21
2023-04-18T02:55:31.779Z,30.25
2023-04-18T02:56:31.787Z,30.29
2023-04-18T02:57:31.772Z,30.22
2023-04-18T02:58:31.787Z,30.22
2023-04-18T02:59:32.022Z,30.23
2023-04-18T03:00:31.751Z,30.23
2023-04-18T03:01:31.781Z,30.23
2023-04-18T03:02:32.153Z,30.22
2023-04-18T03:03:31.777Z,30.19
2023-04-18T03:04:31.725Z,30.20
2023-04-18T03:05:31.706Z,30.19
2023-04-18T03:06:31.745Z,30.20
2023-04-18T03:07:31.715Z,30.13
2023-04-18T03:08:31.721Z,30.12
2023-04-18T03:09:31.704Z,30.14
2023-04-18T03:10:31.700Z,30.15
2023-04-18T03:11:31.790Z,30.12
2023-04-18T03:12:31.659Z,30.15
2023-04-18T03:13:31.674Z,30.13
2023-04-18T03:14:31.655Z,30.12
2023-04-18T03:15:31.663Z,30.13
2023-04-18T03:16:31.668Z,30.18
2023-04-18T03:17:31.728Z,30.19
2023-04-18T03:18:31.606Z,30.20
2023-04-18T03:19:31.618Z,30.12
2023-04-18T03:20:31.603Z,30.10
2023-04-18T03:21:31.617Z,30.13
2023-04-18T03:22:31.603Z,30.10
2023-04-18T03:23:31.610Z,30.08
2023-04-18T03:24:31.595Z,30.09
2023-04-18T03:25:31.581Z,30.09
2023-04-18T03:26:31.562Z,30.08
2023-04-18T03:27:31.558Z,30.10
2023-04-18T03:28:31.555Z,30.06
2023-04-18T03:29:31.575Z,30.10
2023-04-18T03:30:31.522Z,30.13
2023-04-18T03:31:31.585Z,30.12
2023-04-18T03:32:31.550Z,30.10
2023-04-18T03:33:31.515Z,30.06
2023-04-18T03:34:31.502Z,30.13
2023-04-18T03:35:31.508Z,30.04
2023-04-18T03:36:31.490Z,30.09
2023-04-18T03:37:31.487Z,30.09
2023-04-18T03:38:31.461Z,30.12
2023-04-18T03:39:31.476Z,30.06
2023-04-18T03:40:31.444Z,30.11
2023-04-18T03:41:31.457Z,30.13
2023-04-18T03:42:31.454Z,30.10
2023-04-18T03:43:31.459Z,30.12
2023-04-18T03:44:31.454Z,30.07
2023-04-18T03:45:31.424Z,30.06
2023-04-18T03:46:31.475Z,30.10
2023-04-18T03:47:31.475Z,30.10
2023-04-18T03:48:31.429Z,30.11
2023-04-18T03:49:31.418Z,30.11
2023-04-18T03:50:31.392Z,30.07
2023-04-18T03:51:31.364Z,30.11
2023-04-18T03:52:31.422Z,30.07
2023-04-18T03:53:31.357Z,30.06
2023-04-18T03:54:31.376Z,29.97
2023-04-18T03:55:31.349Z,30.04
2023-04-18T03:56:31.349Z,29.99
2023-04-18T03:57:31.350Z,30.02
2023-04-18T03:58:31.357Z,29.97
2023-04-18T03:59:31.338Z,30.02
2023-04-18T04:00:31.407Z,30.02
2023-04-18T04:01:31.355Z,30.00
2023-04-18T04:02:31.455Z,30.02
2023-04-18T04:03:31.406Z,30.04
2023-04-18T04:04:31.333Z,30.03
2023-04-18T04:05:31.317Z,30.03
2023-04-18T04:06:31.269Z,30.03
2023-04-18T04:07:31.313Z,29.96
2023-04-18T04:08:31.274Z,29.95
2023-04-18T04:09:31.268Z,29.96
2023-04-18T04:10:31.226Z,29.93
2023-04-18T04:11:31.238Z,29.91
2023-04-18T04:12:31.233Z,29.94
2023-04-18T04:13:31.208Z,29.92
2023-04-18T04:14:31.243Z,29.92
2023-04-18T04:15:31.204Z,29.89
2023-04-18T04:16:31.191Z,29.91
2023-04-18T04:17:31.207Z,29.97
2023-04-18T04:18:31.259Z,29.92
2023-04-18T04:19:31.151Z,29.94
2023-04-18T04:20:31.162Z,29.94
2023-04-18T04:21:31.158Z,29.96
2023-04-18T04:22:31.147Z,29.93
2023-04-18T04:23:31.154Z,29.93
2023-04-18T04:24:31.133Z,29.96
2023-04-18T04:25:31.143Z,29.95
2023-04-18T04:26:31.111Z,30.00
2023-04-18T04:27:31.127Z,29.98
2023-04-18T04:28:31.137Z,29.99
2023-04-18T04:29:31.119Z,29.92
2023-04-18T04:30:31.095Z,29.97
2023-04-18T04:31:31.109Z,29.98
2023-04-18T04:32:31.155Z,29.94
2023-04-18T04:33:31.089Z,29.94
2023-04-18T04:34:31.100Z,29.95
2023-04-18T04:35:31.107Z,29.98
2023-04-18T04:36:31.054Z,29.94
2023-04-18T04:37:31.159Z,29.95
2023-04-18T04:38:31.348Z,29.97
2023-04-18T04:39:31.067Z,29.93
2023-04-18T04:40:31.096Z,29.97
2023-04-18T04:41:31.074Z,29.92
2023-04-18T04:42:31.074Z,29.97
2023-04-18T04:43:31.104Z,29.96
2023-04-18T04:44:31.102Z,29.92
2023-04-18T04:45:31.139Z,29.97
2023-04-18T04:46:31.071Z,30.01
2023-04-18T04:47:31.158Z,29.95
2023-04-18T04:48:31.078Z,30.03
2023-04-18T04:49:31.070Z,30.03
2023-04-18T04:50:31.084Z,30.24
2023-04-18T04:51:31.059Z,30.30
2023-04-18T04:52:31.057Z,30.44
2023-04-18T04:53:31.079Z,31.09
2023-04-18T04:54:31.095Z,31.49
2023-04-18T04:55:31.088Z,31.52
2023-04-18T04:56:31.081Z,31.56
2023-04-18T04:57:31.076Z,31.67
2023-04-18T04:58:31.107Z,31.90
2023-04-18T04:59:31.073Z,31.99
2023-04-18T05:00:31.108Z,32.26
2023-04-18T05:01:31.157Z,32.26
2023-04-18T05:02:31.226Z,32.35
2023-04-18T05:03:31.308Z,32.36
2023-04-18T05:04:31.234Z,32.33
2023-04-18T05:05:31.112Z,32.41
2023-04-18T05:06:31.130Z,32.42
2023-04-18T05:07:31.121Z,32.45
2023-04-18T05:08:31.146Z,32.56
2023-04-18T05:09:31.186Z,32.64
2023-04-18T05:10:31.189Z,32.79
2023-04-18T05:11:31.196Z,32.96
2023-04-18T05:12:31.166Z,32.93
2023-04-18T05:13:31.183Z,33.23
2023-04-18T05:14:31.180Z,33.18
2023-04-18T05:15:31.197Z,33.17
2023-04-18T05:16:31.219Z,33.10
2023-04-18T05:17:31.207Z,33.33
2023-04-18T05:18:33.002Z,33.38
2023-04-18T05:19:31.203Z,33.40
2023-04-18T05:20:31.230Z,33.43
2023-04-18T05:21:31.193Z,33.39
2023-04-18T05:22:31.222Z,33.34
2023-04-18T05:23:31.240Z,33.56
2023-04-18T05:24:31.167Z,33.56
2023-04-18T05:25:31.183Z,33.65
2023-04-18T05:26:31.188Z,33.80
2023-04-18T05:27:31.174Z,33.76
2023-04-18T05:28:31.159Z,33.79
2023-04-18T05:29:31.166Z,33.82
2023-04-18T05:30:31.167Z,33.88
2023-04-18T05:31:31.138Z,33.86
2023-04-18T05:32:31.135Z,33.91
2023-04-18T05:33:31.108Z,33.99
2023-04-18T05:34:31.118Z,34.16
2023-04-18T05:35:31.103Z,34.06
2023-04-18T05:36:31.112Z,34.17
2023-04-18T05:37:31.101Z,34.16
2023-04-18T05:38:31.089Z,34.10
2023-04-18T05:39:31.081Z,34.38
2023-04-18T05:40:31.563Z,34.52
2023-04-18T05:41:31.058Z,34.61
2023-04-18T05:42:31.067Z,35.54
2023-04-18T05:43:31.049Z,35.87
2023-04-18T05:44:31.041Z,36.29
2023-04-18T05:45:31.051Z,36.48
2023-04-18T05:46:31.103Z,36.63
2023-04-18T05:47:31.062Z,36.51
2023-04-18T05:48:31.036Z,37.68
2023-04-18T05:49:30.997Z,38.83
2023-04-18T05:50:31.031Z,38.06
2023-04-18T05:51:30.973Z,37.77
2023-04-18T05:52:31.000Z,37.70
2023-04-18T05:53:31.003Z,37.61
2023-04-18T05:54:30.983Z,38.27
2023-04-18T05:55:30.963Z,38.19
2023-04-18T05:56:30.983Z,38.53
2023-04-18T05:57:30.988Z,38.39
2023-04-18T05:58:30.939Z,38.18
2023-04-18T05:59:30.954Z,37.94
2023-04-18T06:00:30.912Z,38.03
2023-04-18T06:01:30.999Z,38.06
2023-04-18T06:02:31.028Z,37.88
2023-04-18T06:03:31.097Z,37.79
2023-04-18T06:04:31.040Z,37.54
2023-04-18T06:05:31.346Z,37.56
2023-04-18T06:06:30.887Z,37.46
2023-04-18T06:07:31.266Z,37.55
2023-04-18T06:08:30.855Z,37.34
2023-04-18T06:09:30.865Z,37.23
2023-04-18T06:10:30.890Z,37.18
2023-04-18T06:11:30.822Z,37.01
2023-04-18T06:12:30.865Z,36.98
2023-04-18T06:13:30.845Z,36.93
2023-04-18T06:14:30.848Z,36.94
2023-04-18T06:15:30.848Z,36.95
2023-04-18T06:16:30.921Z,36.92
2023-04-18T06:17:30.921Z,37.04
2023-04-18T06:18:30.930Z,36.78
2023-04-18T06:19:30.979Z,36.73
2023-04-18T06:20:31.021Z,36.73
2023-04-18T06:21:31.051Z,36.71
2023-04-18T06:22:31.090Z,36.67
2023-04-18T06:23:31.162Z,36.76
2023-04-18T06:24:31.373Z,36.62
2023-04-18T06:25:31.223Z,36.44
2023-04-18T06:26:31.241Z,36.35
2023-04-18T06:27:32.044Z,36.31
2023-04-18T06:28:31.357Z,36.33
2023-04-18T06:29:31.347Z,36.36
2023-04-18T06:30:31.427Z,36.25
2023-04-18T06:31:31.498Z,36.09
2023-04-18T06:32:31.563Z,36.05
2023-04-18T06:33:31.534Z,36.08
2023-04-18T06:34:31.589Z,36.07
2023-04-18T06:35:31.601Z,36.05
2023-04-18T06:36:31.659Z,36.05
2023-04-18T06:37:31.695Z,36.01
2023-04-18T06:38:31.766Z,36.03
2023-04-18T06:39:31.926Z,36.04
2023-04-18T06:40:31.826Z,36.00
2023-04-18T06:41:31.825Z,36.02
2023-04-18T06:42:31.902Z,35.95
2023-04-18T06:43:31.957Z,35.98
2023-04-18T06:44:31.965Z,35.95
2023-04-18T06:45:32.112Z,35.95
2023-04-18T06:46:32.061Z,35.92
2023-04-18T06:47:32.072Z,35.85
2023-04-18T06:48:32.080Z,35.68
2023-04-18T06:49:32.128Z,35.66
2023-04-18T06:50:32.149Z,35.78
2023-04-18T06:51:32.228Z,35.84
2023-04-18T06:52:32.234Z,35.84
2023-04-18T06:53:32.264Z,35.77
2023-04-18T06:54:32.276Z,35.84
2023-04-18T06:55:32.320Z,36.06
2023-04-18T06:56:34.417Z,35.91
2023-04-18T06:57:32.346Z,35.87
2023-04-18T06:58:32.319Z,35.86
2023-04-18T06:59:32.337Z,35.82
2023-04-18T07:00:32.345Z,35.77
2023-04-18T07:01:32.411Z,35.97
2023-04-18T07:02:32.451Z,35.95
2023-04-18T07:03:32.369Z,35.88
2023-04-18T07:04:32.352Z,35.80
2023-04-18T07:05:32.542Z,35.81
2023-04-18T07:06:33.047Z,35.84
2023-04-18T07:07:32.244Z,35.80
2023-04-18T07:08:32.263Z,35.74
2023-04-18T07:09:32.270Z,35.93
2023-04-18T07:10:32.242Z,35.92
2023-04-18T07:11:32.268Z,35.82
2023-04-18T07:12:32.235Z,35.77
2023-04-18T07:13:32.229Z,35.77
2023-04-18T07:14:34.082Z,35.86
2023-04-18T07:15:32.207Z,35.86
2023-04-18T07:16:32.235Z,35.84
2023-04-18T07:17:32.237Z,35.91
2023-04-18T07:18:37.965Z,35.93
2023-04-18T07:19:33.159Z,35.90
2023-04-18T07:20:32.174Z,35.88
2023-04-18T07:21:32.148Z,35.82
2023-04-18T07:22:32.137Z,35.84
2023-04-18T07:23:32.118Z,35.87
2023-04-18T07:24:32.127Z,35.85
2023-04-18T07:25:32.156Z,35.82
2023-04-18T07:26:32.112Z,35.87
2023-04-18T07:27:32.132Z,35.88
2023-04-18T07:28:32.147Z,35.88
2023-04-18T07:29:32.076Z,35.90
2023-04-18T07:30:32.117Z,35.92
2023-04-18T07:31:32.185Z,35.85
2023-04-18T07:32:32.090Z,35.85
2023-04-18T07:33:32.070Z,35.83
2023-04-18T07:34:32.049Z,35.82
2023-04-18T07:35:32.086Z,35.85
2023-04-18T07:36:32.047Z,36.00
2023-04-18T07:37:32.021Z,35.99
2023-04-18T07:38:32.024Z,35.93
2023-04-18T07:39:32.056Z,35.90
2023-04-18T07:40:32.073Z,35.90
2023-04-18T07:41:32.057Z,35.92
2023-04-18T07:42:32.101Z,35.96
2023-04-18T07:43:32.176Z,36.49
2023-04-18T07:44:32.108Z,38.03
2023-04-18T07:45:32.582Z,39.38
2023-04-18T07:46:32.172Z,39.50
2023-04-18T07:47:33.254Z,39.70
2023-04-18T07:48:32.177Z,39.65
2023-04-18T07:49:32.200Z,39.33
2023-04-18T07:50:32.605Z,39.46
2023-04-18T07:51:32.319Z,39.65
2023-04-18T07:52:32.344Z,39.96
2023-04-18T07:53:32.423Z,39.99
2023-04-18T07:54:32.462Z,39.98
2023-04-18T07:55:32.511Z,40.59
2023-04-18T07:56:32.567Z,40.50
2023-04-18T07:57:32.630Z,40.84
2023-04-18T07:58:32.690Z,41.49
2023-04-18T07:59:32.731Z,41.23
2023-04-18T08:00:32.822Z,41.33
2023-04-18T08:01:32.811Z,41.30
2023-04-18T08:02:33.011Z,41.58
2023-04-18T08:03:32.988Z,41.53
2023-04-18T08:04:33.169Z,41.65
2023-04-18T08:05:33.023Z,41.94
2023-04-18T08:06:32.973Z,41.93
2023-04-18T08:07:33.003Z,42.09
2023-04-18T08:08:33.021Z,42.29
2023-04-18T08:09:33.013Z,42.48
2023-04-18T08:10:33.048Z,42.80
2023-04-18T08:11:33.090Z,42.96
2023-04-18T08:12:33.081Z,43.12
2023-04-18T08:13:33.072Z,43.45
2023-04-18T08:14:33.070Z,43.67
2023-04-18T08:15:33.213Z,44.28
2023-04-18T08:16:33.087Z,44.22
2023-04-18T08:17:33.098Z,44.18
2023-04-18T08:18:33.111Z,44.32
2023-04-18T08:19:33.083Z,44.79
2023-04-18T08:20:33.073Z,44.77
2023-04-18T08:21:33.098Z,44.29
2023-04-18T08:22:33.135Z,44.77
2023-04-18T08:23:33.159Z,44.74
2023-04-18T08:24:33.174Z,44.46
2023-04-18T08:25:33.172Z,44.27
2023-04-18T08:26:33.234Z,44.42
2023-04-18T08:27:33.242Z,44.62
2023-04-18T08:28:33.274Z,44.44
2023-04-18T08:29:33.301Z,44.99
2023-04-18T08:30:33.336Z,44.60
2023-04-18T08:31:33.467Z,45.06
2023-04-18T08:32:33.483Z,45.49
2023-04-18T08:33:33.530Z,45.47
2023-04-18T08:34:33.545Z,45.77
2023-04-18T08:35:33.623Z,45.58
2023-04-18T08:36:34.106Z,45.87
2023-04-18T08:37:33.794Z,45.08
2023-04-18T08:38:33.804Z,44.80
2023-04-18T08:39:33.881Z,44.61
2023-04-18T08:40:33.917Z,44.08
2023-04-18T08:41:34.081Z,44.18
2023-04-18T08:42:34.032Z,44.16
2023-04-18T08:43:34.109Z,44.00
2023-04-18T08:44:34.153Z,43.79
2023-04-18T08:45:34.284Z,43.98
2023-04-18T08:46:34.588Z,43.79
2023-04-18T08:47:34.367Z,43.75
2023-04-18T08:48:34.385Z,43.93
2023-04-18T08:49:34.359Z,43.61
2023-04-18T08:50:34.389Z,43.73
2023-04-18T08:51:34.598Z,43.35
2023-04-18T08:52:34.445Z,43.34
2023-04-18T08:53:34.448Z,42.79
2023-04-18T08:54:34.441Z,42.85
2023-04-18T08:55:34.400Z,43.21
2023-04-18T08:56:34.628Z,43.31
2023-04-18T08:57:34.414Z,43.26
2023-04-18T08:58:34.407Z,42.59
2023-04-18T08:59:34.415Z,42.54
2023-04-18T09:00:34.414Z,42.59
2023-04-18T09:01:34.459Z,42.38
2023-04-18T09:02:34.478Z,42.12
2023-04-18T09:03:34.464Z,41.93
2023-04-18T09:04:34.467Z,42.13
2023-04-18T09:05:34.412Z,42.17
2023-04-18T09:06:34.611Z,42.20
2023-04-18T09:07:34.389Z,42.18
2023-04-18T09:08:34.387Z,41.97
2023-04-18T09:09:34.430Z,42.06
2023-04-18T09:10:34.435Z,42.14
2023-04-18T09:11:34.438Z,42.29
2023-04-18T09:12:34.423Z,42.49
2023-04-18T09:13:34.417Z,42.59
2023-04-18T09:14:34.390Z,42.52
2023-04-18T09:15:34.444Z,42.54
2023-04-18T09:16:34.496Z,42.68
2023-04-18T09:17:34.514Z,42.52
2023-04-18T09:18:34.390Z,42.56
2023-04-18T09:19:34.694Z,42.52
2023-04-18T09:20:34.561Z,42.57
2023-04-18T09:21:34.404Z,42.55
2023-04-18T09:22:34.409Z,42.62
2023-04-18T09:23:34.423Z,42.61
2023-04-18T09:24:34.477Z,42.63
2023-04-18T09:25:34.509Z,42.45
2023-04-18T09:26:34.426Z,42.38
2023-04-18T09:27:34.419Z,42.37
2023-04-18T09:28:34.415Z,42.38
2023-04-18T09:29:34.400Z,42.55
2023-04-18T09:30:34.439Z,42.74
2023-04-18T09:31:34.806Z,42.88
2023-04-18T09:32:34.424Z,42.92
2023-04-18T09:33:34.409Z,43.02
2023-04-18T09:34:34.416Z,43.11
2023-04-18T09:35:34.472Z,43.11
2023-04-18T09:36:34.676Z,43.24
2023-04-18T09:37:34.402Z,43.22
2023-04-18T09:38:34.383Z,43.22
2023-04-18T09:39:34.412Z,43.21
2023-04-18T09:40:34.402Z,43.18
2023-04-18T09:41:34.647Z,43.20
2023-04-18T09:42:34.386Z,43.25
2023-04-18T09:43:34.367Z,42.94
2023-04-18T09:44:34.364Z,43.47
2023-04-18T09:45:34.411Z,43.24
2023-04-18T09:46:34.569Z,42.50
2023-04-18T09:47:34.429Z,41.29
2023-04-18T09:48:34.418Z,42.58
2023-04-18T09:49:34.415Z,43.04
2023-04-18T09:50:34.498Z,43.76
2023-04-18T09:51:34.692Z,43.77
2023-04-18T09:52:34.600Z,43.64
2023-04-18T09:53:34.649Z,44.06
2023-04-18T09:54:34.730Z,44.54
2023-04-18T09:55:34.767Z,44.97
2023-04-18T09:56:34.809Z,45.84
2023-04-18T09:57:34.892Z,45.74
2023-04-18T09:58:34.955Z,46.00
2023-04-18T09:59:34.998Z,45.90
2023-04-18T10:00:35.070Z,46.33
2023-04-18T10:01:35.136Z,46.48
2023-04-18T10:02:35.247Z,46.53
2023-04-18T10:03:35.330Z,46.63
2023-04-18T10:04:35.584Z,46.78
2023-04-18T10:05:35.263Z,46.75
2023-04-18T10:06:35.283Z,46.88
2023-04-18T10:07:35.657Z,46.98
2023-04-18T10:08:35.369Z,46.89
2023-04-18T10:09:35.410Z,46.90
2023-04-18T10:10:35.427Z,46.83
2023-04-18T10:11:35.463Z,46.95
2023-04-18T10:12:35.487Z,46.89
2023-04-18T10:13:35.509Z,46.89
2023-04-18T10:14:35.555Z,46.99
2023-04-18T10:15:35.624Z,46.93
2023-04-18T10:16:36.426Z,46.86
2023-04-18T10:17:35.644Z,46.96
2023-04-18T10:18:35.694Z,47.09
2023-04-18T10:19:35.692Z,47.71
2023-04-18T10:20:35.876Z,47.38
2023-04-18T10:21:35.724Z,47.37
2023-04-18T10:22:35.732Z,47.35
2023-04-18T10:23:35.820Z,47.44
2023-04-18T10:24:35.784Z,47.61
2023-04-18T10:25:35.782Z,47.85
2023-04-18T10:26:35.818Z,47.79
2023-04-18T10:27:35.823Z,47.80
2023-04-18T10:28:35.824Z,47.87
2023-04-18T10:29:35.860Z,47.83
2023-04-18T10:30:35.863Z,47.68
2023-04-18T10:31:35.945Z,47.46
2023-04-18T10:32:35.869Z,47.47
2023-04-18T10:33:35.993Z,47.22
2023-04-18T10:34:36.918Z,47.03
2023-04-18T10:35:35.903Z,46.45
2023-04-18T10:36:36.174Z,46.53
2023-04-18T10:37:35.875Z,46.87
2023-04-18T10:38:35.908Z,46.19
2023-04-18T10:39:35.859Z,45.50
2023-04-18T10:40:35.829Z,44.32
2023-04-18T10:41:35.856Z,43.90
2023-04-18T10:42:35.839Z,44.32
2023-04-18T10:43:35.823Z,44.47
2023-04-18T10:44:35.810Z,44.45
2023-04-18T10:45:35.831Z,44.53
2023-04-18T10:46:35.834Z,44.52
2023-04-18T10:47:35.942Z,44.63
2023-04-18T10:48:38.621Z,44.64
2023-04-18T10:49:35.768Z,44.54
2023-04-18T10:50:35.755Z,44.70
2023-04-18T10:51:36.188Z,44.85
2023-04-18T10:52:35.897Z,44.82
2023-04-18T10:53:35.824Z,44.64
2023-04-18T10:54:35.828Z,44.76
2023-04-18T10:55:35.907Z,44.75
2023-04-18T10:56:35.781Z,44.53
2023-04-18T10:57:35.737Z,44.43
2023-04-18T10:58:35.740Z,44.26
2023-04-18T10:59:35.702Z,44.10
2023-04-18T11:00:35.728Z,43.84
2023-04-18T11:01:35.776Z,43.72
2023-04-18T11:02:35.768Z,43.52
2023-04-18T11:03:35.880Z,43.48
2023-04-18T11:04:35.697Z,43.37
2023-04-18T11:05:35.720Z,43.30
2023-04-18T11:06:35.676Z,43.16
2023-04-18T11:07:35.662Z,43.10
2023-04-18T11:08:35.858Z,42.72
2023-04-18T11:09:35.661Z,41.47
2023-04-18T11:10:35.652Z,40.99
2023-04-18T11:11:35.642Z,41.06
2023-04-18T11:12:36.374Z,41.13
2023-04-18T11:13:35.645Z,40.82
2023-04-18T11:14:35.635Z,40.62
2023-04-18T11:15:35.600Z,40.49
2023-04-18T11:16:35.695Z,40.35
2023-04-18T11:17:35.628Z,40.23
2023-04-18T11:18:35.608Z,40.16
2023-04-18T11:19:35.591Z,40.11
2023-04-18T11:20:35.569Z,40.03
2023-04-18T11:21:35.668Z,39.98
2023-04-18T11:22:35.586Z,39.99
2023-04-18T11:23:35.542Z,39.86
2023-04-18T11:24:35.602Z,39.79
2023-04-18T11:25:35.512Z,39.75
2023-04-18T11:26:36.226Z,39.73
2023-04-18T11:27:35.614Z,39.77
2023-04-18T11:28:35.513Z,39.86
2023-04-18T11:29:35.513Z,40.11
2023-04-18T11:30:35.484Z,40.26
2023-04-18T11:31:35.614Z,40.39
2023-04-18T11:32:35.755Z,40.34
2023-04-18T11:33:35.511Z,40.87
2023-04-18T11:34:35.465Z,40.39
2023-04-18T11:35:35.448Z,40.89
2023-04-18T11:36:35.472Z,41.09
2023-04-18T11:37:35.688Z,40.43
2023-04-18T11:38:35.470Z,40.72
2023-04-18T11:39:35.456Z,40.62
2023-04-18T11:40:35.471Z,41.17
2023-04-18T11:41:35.471Z,40.93
2023-04-18T11:42:35.482Z,41.86
2023-04-18T11:43:35.417Z,42.06
2023-04-18T11:44:36.352Z,41.46
2023-04-18T11:45:35.442Z,41.59
2023-04-18T11:46:35.550Z,42.04
2023-04-18T11:47:35.539Z,41.73
2023-04-18T11:48:35.554Z,42.92
2023-04-18T11:49:35.552Z,42.82
2023-04-18T11:50:35.630Z,42.73
2023-04-18T11:51:35.754Z,43.59
2023-04-18T11:52:35.743Z,42.71
2023-04-18T11:53:35.782Z,43.08
2023-04-18T11:54:35.803Z,42.44
2023-04-18T11:55:35.817Z,43.12
2023-04-18T11:56:36.943Z,42.72
2023-04-18T11:57:35.920Z,42.60
2023-04-18T11:58:35.922Z,42.70
2023-04-18T11:59:35.991Z,42.76
2023-04-18T12:00:36.018Z,42.89
2023-04-18T12:01:36.010Z,43.09
2023-04-18T12:02:36.147Z,42.96
2023-04-18T12:03:36.280Z,42.90
2023-04-18T12:04:36.241Z,42.90
2023-04-18T12:05:36.366Z,42.67
2023-04-18T12:06:36.039Z,42.59
2023-04-18T12:07:36.127Z,42.46
2023-04-18T12:08:36.062Z,42.35
2023-04-18T12:09:36.068Z,42.13
2023-04-18T12:10:36.111Z,42.16
2023-04-18T12:11:36.089Z,42.33
2023-04-18T12:12:36.100Z,42.08
2023-04-18T12:13:36.106Z,41.98
2023-04-18T12:14:36.089Z,42.10
2023-04-18T12:15:36.221Z,42.33
2023-04-18T12:16:36.097Z,42.29
2023-04-18T12:17:36.170Z,42.35
2023-04-18T12:18:36.070Z,42.52
2023-04-18T12:19:36.077Z,42.42
2023-04-18T12:20:36.083Z,42.29
2023-04-18T12:21:36.099Z,42.17
2023-04-18T12:22:36.148Z,42.02
2023-04-18T12:23:36.123Z,41.91
2023-04-18T12:24:36.087Z,41.78
2023-04-18T12:25:36.085Z,41.67
2023-04-18T12:26:36.091Z,41.27
2023-04-18T12:27:36.122Z,40.29
2023-04-18T12:28:36.090Z,40.06
2023-04-18T12:29:36.082Z,40.15
2023-04-18T12:30:37.824Z,40.40
2023-04-18T12:31:36.144Z,40.10
2023-04-18T12:32:36.151Z,40.28
2023-04-18T12:33:36.130Z,40.46
2023-04-18T12:34:36.156Z,40.63
2023-04-18T12:35:36.167Z,40.54
2023-04-18T12:36:36.152Z,40.71
2023-04-18T12:37:36.169Z,40.68
2023-04-18T12:38:36.166Z,40.56
2023-04-18T12:39:36.207Z,40.49
2023-04-18T12:40:36.231Z,40.44
2023-04-18T12:41:36.283Z,39.52
2023-04-18T12:42:36.273Z,39.64
2023-04-18T12:43:36.295Z,39.78
2023-04-18T12:44:36.343Z,39.85
2023-04-18T12:45:36.325Z,39.97
2023-04-18T12:46:36.417Z,39.89
2023-04-18T12:47:36.538Z,39.90
2023-04-18T12:48:36.417Z,40.11
2023-04-18T12:49:36.422Z,40.34
2023-04-18T12:50:36.459Z,40.35
2023-04-18T12:51:36.501Z,40.16
2023-04-18T12:52:36.514Z,40.12